createdAt,value
2023-04-01T00:00:15.068Z,11.49
2023-04-01T00:02:41.519Z,11.73
2023-04-01T00:05:10.077Z,12.08
2023-04-01T00:07:36.539Z,12.25
2023-04-01T00:10:03.258Z,12.02
2023-04-01T00:12:29.692Z,11.66
2023-04-01T00:14:56.331Z,11.50
2023-04-01T00:17:22.869Z,11.82
2023-04-01T00:19:49.256Z,12.10
2023-04-01T00:22:16.961Z,12.24
2023-04-01T00:24:43.449Z,11.72
2023-04-01T00:27:09.861Z,11.48
2023-04-01T00:29:36.230Z,11.74
2023-04-01T00:32:02.705Z,11.54
2023-04-01T00:34:29.173Z,11.65
2023-04-01T00:36:55.563Z,11.25
2023-04-01T00:39:23.353Z,11.92
2023-04-01T00:41:49.734Z,11.33
2023-04-01T00:44:18.983Z,11.26
2023-04-01T00:46:45.370Z,11.24
2023-04-01T00:49:12.591Z,11.40
2023-04-01T00:51:40.389Z,11.50
2023-04-01T00:54:10.379Z,11.87
2023-04-01T00:56:40.997Z,11.45
2023-04-01T00:59:12.643Z,12.01
2023-04-01T01:01:39.237Z,11.89
2023-04-01T01:04:05.861Z,11.52
2023-04-01T01:06:45.214Z,11.86
2023-04-01T01:09:24.889Z,11.95
2023-04-01T01:11:58.032Z,11.45
2023-04-01T01:14:36.893Z,11.71
2023-04-01T01:17:11.597Z,11.51
2023-04-01T01:20:25.474Z,11.64
2023-04-01T01:23:07.371Z,12.18
2023-04-01T01:25:41.542Z,11.84
2023-04-01T01:28:26.126Z,11.53
2023-04-01T01:30:59.190Z,11.20
2023-04-01T01:33:36.805Z,11.43
2023-04-01T01:36:07.719Z,11.50
2023-04-01T01:38:35.865Z,11.14
2023-04-01T01:41:04.878Z,11.18
2023-04-01T01:43:34.147Z,11.23
2023-04-01T01:46:05.474Z,11.28
2023-04-01T01:48:33.666Z,11.34
2023-04-01T01:51:01.207Z,11.68
2023-04-01T01:53:28.936Z,11.37
2023-04-01T01:55:55.281Z,11.54
2023-04-01T01:58:25.774Z,11.48
2023-04-01T02:00:57.186Z,12.10
2023-04-01T02:03:26.801Z,11.73
2023-04-01T02:05:56.815Z,11.47
2023-04-01T02:08:27.080Z,11.88
2023-04-01T02:10:58.666Z,11.99
2023-04-01T02:13:30.750Z,11.44
2023-04-01T02:16:02.888Z,11.87
2023-04-01T02:18:30.550Z,11.72
2023-04-01T02:20:59.064Z,11.74
2023-04-01T02:23:26.340Z,11.89
2023-04-01T02:25:53.078Z,11.46
2023-04-01T02:28:21.379Z,11.87
2023-04-01T02:30:50.342Z,11.39
2023-04-01T02:33:18.075Z,11.39
2023-04-01T02:35:44.569Z,10.67
2023-04-01T02:38:10.956Z,10.86
2023-04-01T02:40:46.206Z,11.54
2023-04-01T02:43:12.633Z,11.80
2023-04-01T02:45:40.456Z,11.81
2023-04-01T02:48:07.118Z,11.78
2023-04-01T02:50:33.534Z,11.89
2023-04-01T02:52:59.980Z,11.42
2023-04-01T02:55:26.431Z,11.56
2023-04-01T02:57:52.785Z,11.37
2023-04-01T03:00:19.406Z,12.05
2023-04-01T03:02:47.232Z,11.86
2023-04-01T03:05:13.665Z,11.99
2023-04-01T03:07:40.165Z,11.51
2023-04-01T03:10:07.787Z,11.37
2023-04-01T03:12:34.408Z,11.41
2023-04-01T03:15:10.957Z,11.66
2023-04-01T03:17:41.439Z,11.36
2023-04-01T03:20:10.759Z,11.52
2023-04-01T03:22:37.842Z,11.30
2023-04-01T03:25:05.579Z,11.56
2023-04-01T03:27:31.944Z,11.92
2023-04-01T03:29:58.329Z,11.43
2023-04-01T03:32:24.906Z,12.04
2023-04-01T03:34:51.310Z,11.64
2023-04-01T03:37:19.014Z,11.80
2023-04-01T03:39:45.509Z,11.32
2023-04-01T03:42:12.606Z,11.93
2023-04-01T03:44:38.977Z,11.35
2023-04-01T03:47:05.376Z,11.88
2023-04-01T03:49:31.799Z,11.75
2023-04-01T03:51:58.491Z,12.01
2023-04-01T03:54:26.246Z,11.93
2023-04-01T03:56:52.739Z,12.00
2023-04-01T03:59:19.177Z,11.82
2023-04-01T04:01:47.279Z,12.12
2023-04-01T04:04:13.757Z,11.81
2023-04-01T04:06:40.171Z,12.12
2023-04-01T04:09:06.544Z,11.53
2023-04-01T04:11:34.307Z,11.91
2023-04-01T04:14:00.741Z,12.04
2023-04-01T04:16:27.267Z,12.23
2023-04-01T04:18:53.757Z,11.57
2023-04-01T04:21:20.164Z,11.48
2023-04-01T04:23:46.666Z,11.66
2023-04-01T04:26:15.614Z,11.73
2023-04-01T04:28:43.349Z,11.47
2023-04-01T04:31:09.962Z,11.37
2023-04-01T04:33:36.848Z,12.14
2023-04-01T04:36:04.824Z,11.78
2023-04-01T04:38:31.256Z,12.02
2023-04-01T04:40:57.656Z,11.61
2023-04-01T04:43:24.052Z,11.27
2023-04-01T04:45:52.183Z,11.24
2023-04-01T04:48:18.707Z,11.08
2023-04-01T04:50:45.323Z,11.54
2023-04-01T04:53:12.123Z,11.28
2023-04-01T04:55:38.697Z,11.61
2023-04-01T04:58:05.078Z,11.50
2023-04-01T05:00:31.604Z,11.85
2023-04-01T05:02:59.340Z,12.11
2023-04-01T05:05:25.741Z,12.75
2023-04-01T05:07:52.155Z,12.33
2023-04-01T05:10:18.514Z,11.83
2023-04-01T05:12:44.876Z,11.59
2023-04-01T05:15:12.090Z,11.67
2023-04-01T05:17:38.574Z,11.72
2023-04-01T05:20:07.777Z,11.02
2023-04-01T05:22:34.190Z,11.41
2023-04-01T05:25:00.594Z,11.32
2023-04-01T05:27:26.954Z,11.28
2023-04-01T05:29:53.332Z,11.39
2023-04-01T05:32:19.698Z,11.16
2023-04-01T05:34:46.083Z,11.32
2023-04-01T05:37:13.768Z,11.51
2023-04-01T05:39:40.840Z,11.36
2023-04-01T05:42:07.836Z,11.49
2023-04-01T05:44:34.593Z,11.10
2023-04-01T05:47:01.062Z,11.39
2023-04-01T05:49:28.809Z,11.86
2023-04-01T05:51:55.581Z,11.99
2023-04-01T05:54:23.905Z,12.44
2023-04-01T05:56:50.345Z,11.71
2023-04-01T05:59:16.934Z,11.73
2023-04-01T06:01:43.685Z,11.56
2023-04-01T06:04:14.673Z,11.92
2023-04-01T06:06:41.247Z,12.00
2023-04-01T06:09:14.786Z,12.12
2023-04-01T06:11:53.812Z,12.09
2023-04-01T06:14:33.337Z,11.97
2023-04-01T06:17:18.582Z,12.16
2023-04-01T06:19:52.432Z,12.64
2023-04-01T06:22:40.147Z,12.88
2023-04-01T06:25:28.574Z,13.10
2023-04-01T06:28:11.226Z,12.66
2023-04-01T06:30:43.886Z,12.64
2023-04-01T06:33:24.932Z,13.10
2023-04-01T06:36:13.611Z,12.59
2023-04-01T06:38:56.096Z,12.83
2023-04-01T06:41:59.026Z,12.53
2023-04-01T06:44:38.461Z,12.41
2023-04-01T06:47:15.212Z,12.78
2023-04-01T06:49:51.714Z,12.15
2023-04-01T06:52:24.549Z,11.83
2023-04-01T06:54:56.540Z,12.61
2023-04-01T06:57:32.083Z,12.67
2023-04-01T07:00:01.708Z,12.22
2023-04-01T07:02:36.153Z,12.52
2023-04-01T07:05:03.222Z,12.57
2023-04-01T07:07:35.028Z,13.18
2023-04-01T07:10:06.023Z,12.77
2023-04-01T07:12:41.306Z,13.22
2023-04-01T07:15:17.545Z,12.78
2023-04-01T07:17:46.102Z,12.76
2023-04-01T07:20:20.716Z,12.26
2023-04-01T07:22:50.399Z,12.49
2023-04-01T07:25:19.351Z,12.63
2023-04-01T07:27:47.020Z,12.72
2023-04-01T07:30:19.485Z,12.50
2023-04-01T07:32:49.464Z,12.83
2023-04-01T07:35:27.063Z,12.48
2023-04-01T07:38:11.709Z,12.70
2023-04-01T07:40:46.688Z,12.80
2023-04-01T07:43:33.879Z,12.74
2023-04-01T07:46:10.085Z,12.85
2023-04-01T07:48:42.157Z,12.85
2023-04-01T07:51:15.088Z,12.90
2023-04-01T07:53:46.702Z,13.69
2023-04-01T07:56:19.743Z,13.17
2023-04-01T07:59:00.050Z,13.29
2023-04-01T08:01:33.840Z,12.82
2023-04-01T08:04:20.562Z,12.98
2023-04-01T08:06:55.292Z,13.61
2023-04-01T08:09:32.225Z,13.37
2023-04-01T08:12:12.082Z,14.18
2023-04-01T08:14:51.564Z,14.76
2023-04-01T08:17:24.134Z,14.37
2023-04-01T08:20:11.450Z,14.08
2023-04-01T08:22:43.044Z,14.18
2023-04-01T08:25:17.960Z,14.63
2023-04-01T08:27:48.330Z,14.39
2023-04-01T08:30:20.132Z,15.03
2023-04-01T08:32:54.076Z,16.71
2023-04-01T08:35:28.885Z,16.51
2023-04-01T08:38:00.893Z,16.32
2023-04-01T08:40:47.176Z,15.06
2023-04-01T08:43:25.229Z,14.79
2023-04-01T08:46:13.940Z,14.48
2023-04-01T08:48:56.053Z,14.59
2023-04-01T08:51:50.081Z,13.61
2023-04-01T08:54:30.917Z,14.45
2023-04-01T08:57:04.610Z,15.05
2023-04-01T08:59:50.195Z,14.60
2023-04-01T09:02:35.918Z,15.31
2023-04-01T09:05:29.099Z,14.94
2023-04-01T09:08:08.224Z,15.27
2023-04-01T09:10:47.054Z,14.17
2023-04-01T09:13:29.505Z,14.28
2023-04-01T09:16:16.589Z,13.81
2023-04-01T09:19:00.031Z,14.27
2023-04-01T09:21:42.121Z,14.72
2023-04-01T09:24:41.930Z,14.91
2023-04-01T09:27:15.575Z,14.31
2023-04-01T09:29:55.844Z,14.14
2023-04-01T09:32:38.168Z,13.97
2023-04-01T09:35:19.097Z,13.73
2023-04-01T09:37:54.096Z,13.95
2023-04-01T09:40:32.447Z,15.09
2023-04-01T09:43:16.738Z,14.00
2023-04-01T09:45:53.669Z,13.85
2023-04-01T09:48:36.522Z,14.17
2023-04-01T09:51:23.628Z,14.02
2023-04-01T09:54:03.839Z,14.20
2023-04-01T09:57:15.044Z,14.30
2023-04-01T09:59:58.855Z,14.10
2023-04-01T10:02:53.033Z,13.57
2023-04-01T10:05:31.962Z,13.80
2023-04-01T10:08:40.340Z,13.76
2023-04-01T10:11:21.444Z,13.76
2023-04-01T10:14:25.042Z,13.47
2023-04-01T10:17:32.064Z,13.89
2023-04-01T10:20:40.306Z,14.05
2023-04-01T10:23:22.205Z,13.54
2023-04-01T10:26:13.645Z,13.96
2023-04-01T10:29:09.259Z,13.61
2023-04-01T10:31:51.558Z,13.77
2023-04-01T10:34:40.652Z,13.82
2023-04-01T10:37:20.833Z,14.07
2023-04-01T10:40:20.943Z,14.29
2023-04-01T10:43:22.741Z,13.05
2023-04-01T10:46:25.366Z,13.68
2023-04-01T10:49:15.302Z,13.59
2023-04-01T10:52:05.477Z,14.28
2023-04-01T10:54:46.576Z,14.50
2023-04-01T10:57:44.989Z,14.11
2023-04-01T11:00:56.174Z,13.51
2023-04-01T11:03:47.740Z,13.47
2023-04-01T11:06:44.695Z,14.57
2023-04-01T11:09:41.649Z,14.53
2023-04-01T11:12:33.200Z,14.00
2023-04-01T11:15:49.478Z,13.88
2023-04-01T11:18:54.441Z,13.42
2023-04-01T11:22:08.528Z,13.37
2023-04-01T11:24:52.629Z,13.41
2023-04-01T11:27:31.622Z,13.44
2023-04-01T11:30:13.677Z,13.15
2023-04-01T11:32:47.511Z,12.98
2023-04-01T11:35:30.468Z,13.55
2023-04-01T11:38:08.238Z,13.53
2023-04-01T11:40:43.539Z,13.33
2023-04-01T11:43:32.243Z,13.91
2023-04-01T11:46:06.371Z,14.85
2023-04-01T11:48:42.609Z,15.07
2023-04-01T11:51:29.407Z,14.87
2023-04-01T11:54:05.160Z,14.07
2023-04-01T11:56:45.838Z,14.27
2023-04-01T11:59:37.990Z,15.01
2023-04-01T12:02:12.346Z,14.49
2023-04-01T12:04:55.929Z,14.79
2023-04-01T12:07:46.502Z,14.33
2023-04-01T12:10:18.994Z,13.88
2023-04-01T12:13:01.333Z,13.78
2023-04-01T12:15:39.610Z,14.07
2023-04-01T12:18:17.419Z,14.00
2023-04-01T12:20:50.942Z,14.22
2023-04-01T12:23:34.675Z,14.47
2023-04-01T12:26:22.768Z,14.26
2023-04-01T12:29:04.479Z,14.39
2023-04-01T12:31:43.528Z,14.44
2023-04-01T12:34:40.821Z,13.86
2023-04-01T12:37:13.969Z,13.88
2023-04-01T12:39:57.258Z,14.19
2023-04-01T12:42:41.938Z,14.29
2023-04-01T12:45:28.325Z,14.04
2023-04-01T12:48:16.674Z,14.60
2023-04-01T12:50:59.622Z,14.77
2023-04-01T12:53:44.355Z,13.68
2023-04-01T12:56:20.223Z,13.57
2023-04-01T12:59:18.618Z,12.91
2023-04-01T13:02:01.263Z,13.24
2023-04-01T13:04:50.095Z,13.17
2023-04-01T13:07:25.879Z,13.49
2023-04-01T13:10:02.599Z,13.87
2023-04-01T13:12:50.735Z,14.05
2023-04-01T13:15:29.316Z,13.38
2023-04-01T13:18:04.862Z,13.22
2023-04-01T13:20:44.091Z,13.41
2023-04-01T13:23:23.734Z,13.02
2023-04-01T13:26:06.997Z,13.53
2023-04-01T13:28:47.642Z,13.01
2023-04-01T13:31:37.810Z,13.33
2023-04-01T13:34:16.421Z,13.41
2023-04-01T13:36:55.565Z,13.52
2023-04-01T13:39:32.483Z,13.39
2023-04-01T13:42:15.510Z,13.43
2023-04-01T13:44:48.853Z,12.83
2023-04-01T13:47:51.990Z,11.58
2023-04-01T13:50:33.517Z,11.33
2023-04-01T13:53:28.828Z,11.13
2023-04-01T13:56:05.579Z,11.15
2023-04-01T13:58:56.941Z,11.18
2023-04-01T14:01:38.081Z,10.90
2023-04-01T14:04:21.861Z,10.55
2023-04-01T14:07:01.779Z,10.42
2023-04-01T14:09:45.151Z,10.42
2023-04-01T14:12:18.659Z,10.39
2023-04-01T14:15:04.439Z,10.18
2023-04-01T14:17:47.433Z,10.19
2023-04-01T14:20:39.496Z,10.15
2023-04-01T14:23:35.200Z,10.17
2023-04-01T14:26:11.203Z,10.39
2023-04-01T14:28:48.227Z,9.92
2023-04-01T14:31:32.803Z,9.95
2023-04-01T14:34:12.232Z,10.08
2023-04-01T14:37:13.217Z,9.80
2023-04-01T14:39:58.470Z,9.54
2023-04-01T14:42:42.453Z,9.71
2023-04-01T14:45:21.681Z,9.60
2023-04-01T14:47:51.649Z,9.81
2023-04-01T14:50:22.671Z,9.77
2023-04-01T14:52:58.068Z,9.49
2023-04-01T14:55:32.213Z,9.55
2023-04-01T14:58:00.760Z,9.47
2023-04-01T15:00:27.540Z,9.61
2023-04-01T15:03:00.407Z,9.57
2023-04-01T15:05:45.712Z,9.40
2023-04-01T15:08:17.530Z,9.43
2023-04-01T15:10:52.742Z,9.49
2023-04-01T15:13:30.395Z,9.51
2023-04-01T15:16:10.144Z,9.58
2023-04-01T15:18:49.619Z,9.17
2023-04-01T15:21:31.189Z,9.16
2023-04-01T15:24:07.462Z,9.04
2023-04-01T15:27:02.436Z,9.34
2023-04-01T15:29:45.341Z,9.23
2023-04-01T15:32:21.404Z,9.24
2023-04-01T15:34:58.626Z,9.32
2023-04-01T15:37:38.594Z,8.99
2023-04-01T15:40:20.439Z,8.79
2023-04-01T15:43:03.581Z,8.79
2023-04-01T15:45:39.461Z,8.73
2023-04-01T15:48:21.813Z,8.82
2023-04-01T15:50:55.556Z,8.65
2023-04-01T15:53:29.888Z,8.38
2023-04-01T15:55:58.305Z,8.56
2023-04-01T15:58:50.889Z,8.23
2023-04-01T16:01:27.802Z,8.21
2023-04-01T16:04:05.424Z,8.38
2023-04-01T16:06:57.327Z,8.37
2023-04-01T16:09:44.102Z,8.31
2023-04-01T16:12:18.740Z,8.29
2023-04-01T16:15:00.558Z,8.41
2023-04-01T16:17:50.776Z,8.89
2023-04-01T16:20:20.846Z,8.20
2023-04-01T16:22:55.760Z,8.05
2023-04-01T16:25:32.177Z,8.15
2023-04-01T16:28:14.554Z,8.19
2023-04-01T16:30:47.831Z,8.26
2023-04-01T16:33:22.549Z,7.92
2023-04-01T16:35:56.576Z,8.02
2023-04-01T16:38:28.132Z,8.44
2023-04-01T16:41:11.673Z,7.69
2023-04-01T16:43:43.289Z,7.84
2023-04-01T16:46:22.368Z,7.81
2023-04-01T16:49:00.183Z,7.76
2023-04-01T16:51:33.611Z,7.74
2023-04-01T16:54:06.212Z,7.97
2023-04-01T16:56:42.983Z,7.63
2023-04-01T16:59:20.653Z,7.35
2023-04-01T17:01:53.804Z,7.47
2023-04-01T17:04:28.916Z,7.44
2023-04-01T17:07:05.879Z,7.26
2023-04-01T17:10:01.452Z,7.32
2023-04-01T17:12:38.312Z,7.13
2023-04-01T17:15:16.367Z,7.31
2023-04-01T17:17:50.961Z,7.23
2023-04-01T17:20:34.052Z,7.25
2023-04-01T17:23:08.928Z,7.28
2023-04-01T17:25:48.243Z,7.18
2023-04-01T17:28:28.219Z,6.98
2023-04-01T17:31:03.376Z,7.17
2023-04-01T17:33:59.128Z,7.00
2023-04-01T17:36:37.300Z,6.88
2023-04-01T17:39:24.344Z,7.00
2023-04-01T17:41:55.700Z,6.77
2023-04-01T17:44:35.917Z,7.03
2023-04-01T17:47:17.360Z,7.07
2023-04-01T17:49:52.240Z,6.66
2023-04-01T17:52:28.621Z,6.73
2023-04-01T17:55:05.012Z,6.82
2023-04-01T17:57:45.746Z,6.51
2023-04-01T18:00:27.173Z,6.61
2023-04-01T18:03:05.431Z,6.61
2023-04-01T18:05:42.309Z,6.93
2023-04-01T18:08:18.893Z,6.92
2023-04-01T18:10:58.830Z,7.03
2023-04-01T18:13:45.704Z,6.93
2023-04-01T18:16:31.567Z,6.73
2023-04-01T18:19:03.599Z,6.76
2023-04-01T18:21:40.682Z,6.39
2023-04-01T18:24:15.515Z,6.38
2023-04-01T18:26:45.156Z,6.28
2023-04-01T18:29:27.662Z,6.27
2023-04-01T18:32:10.149Z,6.30
2023-04-01T18:34:49.914Z,6.43
2023-04-01T18:37:20.020Z,6.35
2023-04-01T18:39:51.586Z,6.49
2023-04-01T18:42:29.141Z,6.48
2023-04-01T18:45:00.237Z,6.28
2023-04-01T18:47:39.025Z,6.39
2023-04-01T18:50:16.430Z,6.42
2023-04-01T18:52:44.492Z,6.34
2023-04-01T18:55:29.988Z,6.22
2023-04-01T18:58:12.080Z,6.07
2023-04-01T19:00:43.966Z,5.98
2023-04-01T19:03:20.965Z,6.28
2023-04-01T19:05:51.250Z,5.97
2023-04-01T19:08:28.902Z,5.88
2023-04-01T19:11:09.567Z,5.84
2023-04-01T19:13:49.636Z,5.98
2023-04-01T19:16:26.923Z,6.23
2023-04-01T19:19:15.277Z,6.05
2023-04-01T19:21:45.491Z,5.94
2023-04-01T19:25:00.555Z,5.85
2023-04-01T19:27:33.850Z,5.92
2023-04-01T19:30:14.332Z,6.10
2023-04-01T19:32:50.469Z,6.06
2023-04-01T19:35:30.121Z,5.62
2023-04-01T19:37:59.944Z,5.62
2023-04-01T19:40:53.944Z,5.83
2023-04-01T19:43:35.894Z,6.11
2023-04-01T19:46:09.383Z,5.61
2023-04-01T19:48:45.523Z,5.46
2023-04-01T19:51:20.469Z,5.01
2023-04-01T19:53:54.390Z,5.16
2023-04-01T19:56:22.151Z,5.13
2023-04-01T19:58:54.827Z,5.01
2023-04-01T20:01:41.503Z,4.92
2023-04-01T20:04:15.769Z,5.06
2023-04-01T20:06:52.935Z,5.23
2023-04-01T20:09:40.517Z,5.42
2023-04-01T20:12:13.955Z,5.13
2023-04-01T20:14:46.301Z,5.18
2023-04-01T20:17:19.917Z,4.97
2023-04-01T20:19:54.549Z,5.52
2023-04-01T20:22:30.583Z,5.53
2023-04-01T20:25:00.693Z,4.95
2023-04-01T20:27:33.095Z,4.98
2023-04-01T20:30:24.538Z,5.25
2023-04-01T20:33:07.013Z,5.35
2023-04-01T20:35:44.460Z,5.20
2023-04-01T20:38:31.009Z,5.33
2023-04-01T20:41:05.823Z,4.99
2023-04-01T20:43:58.827Z,4.82
2023-04-01T20:46:35.387Z,4.87
2023-04-01T20:49:34.446Z,4.76
2023-04-01T20:52:17.805Z,4.62
2023-04-01T20:55:01.573Z,4.81
2023-04-01T20:57:36.322Z,5.03
2023-04-01T21:00:23.317Z,4.59
2023-04-01T21:03:02.114Z,4.52
2023-04-01T21:05:51.694Z,4.51
2023-04-01T21:08:24.457Z,4.74
2023-04-01T21:11:02.044Z,4.72
2023-04-01T21:13:42.085Z,4.65
2023-04-01T21:16:34.765Z,4.79
2023-04-01T21:19:13.730Z,4.79
2023-04-01T21:21:58.305Z,5.00
2023-04-01T21:24:53.639Z,4.77
2023-04-01T21:27:35.459Z,4.86
2023-04-01T21:30:14.738Z,5.00
2023-04-01T21:32:57.233Z,5.29
2023-04-01T21:35:34.111Z,5.05
2023-04-01T21:38:28.063Z,4.82
2023-04-01T21:41:05.751Z,4.60
2023-04-01T21:43:49.678Z,4.64
2023-04-01T21:46:49.668Z,4.47
2023-04-01T21:49:39.285Z,4.55
2023-04-01T21:52:25.762Z,4.69
2023-04-01T21:55:14.762Z,4.63
2023-04-01T21:58:09.755Z,4.48
2023-04-01T22:00:39.393Z,4.37
2023-04-01T22:03:48.442Z,4.60
2023-04-01T22:06:27.227Z,4.29
2023-04-01T22:09:03.455Z,4.53
2023-04-01T22:11:44.541Z,4.45
2023-04-01T22:14:16.913Z,4.34
2023-04-01T22:16:51.322Z,4.11
2023-04-01T22:19:23.097Z,4.12
2023-04-01T22:21:56.922Z,4.01
2023-04-01T22:24:27.653Z,4.00
2023-04-01T22:27:01.675Z,3.98
2023-04-01T22:29:35.189Z,3.95
2023-04-01T22:32:07.968Z,3.98
2023-04-01T22:34:40.932Z,4.02
2023-04-01T22:37:12.743Z,3.94
2023-04-01T22:39:51.621Z,4.10
2023-04-01T22:42:32.456Z,4.01
2023-04-01T22:45:08.773Z,4.21
2023-04-01T22:47:46.288Z,4.13
2023-04-01T22:50:19.302Z,4.32
2023-04-01T22:52:48.617Z,4.26
2023-04-01T22:55:18.426Z,4.23
2023-04-01T22:57:49.589Z,4.69
2023-04-01T23:00:21.376Z,4.59
2023-04-01T23:03:03.762Z,4.31
2023-04-01T23:05:32.829Z,4.57
2023-04-01T23:08:17.721Z,4.50
2023-04-01T23:10:50.726Z,4.45
2023-04-01T23:13:23.367Z,4.20
2023-04-01T23:15:52.546Z,4.72
2023-04-01T23:18:25.270Z,4.00
2023-04-01T23:20:59.593Z,3.91
2023-04-01T23:23:39.604Z,3.85
2023-04-01T23:26:11.376Z,4.00
2023-04-01T23:28:45.762Z,4.26
2023-04-01T23:31:32.279Z,4.22
2023-04-01T23:34:02.554Z,4.27
2023-04-01T23:36:31.362Z,4.07
2023-04-01T23:39:02.618Z,4.32
2023-04-01T23:41:31.550Z,4.14
2023-04-01T23:44:02.393Z,3.67
2023-04-01T23:46:31.186Z,3.85
2023-04-01T23:48:57.848Z,3.98
2023-04-01T23:51:28.083Z,3.74
2023-04-01T23:54:01.997Z,4.01
2023-04-01T23:56:41.694Z,3.83
2023-04-01T23:59:14.902Z,4.04
